Terminal Aerodrome Forecast
Issued by NWS Melbourne, FL

Home | Current Version | Previous Version | Text Only | Print | Product List | Glossary On
Versions: 1 2 3 4 5 6 7 8 9 10 11 12 13 14 15 16 17
000
FTUS42 KMLB 161100
TAFDAB
TAF
KDAB 161130Z 1612/1712 32010KT P6SM BKN020 BKN250
     FM161400 02017G26KT P6SM OVC030
     FM170100 04013KT P6SM VCSH BKN020=

USA.gov is the U.S. government's official web portal to all federal, state and local government web resources and services.